createdAt,value
2017-10-26T00:00:28.057Z,22.76
2017-10-26T00:01:08.502Z,22.68
2017-10-26T00:01:48.962Z,22.73
2017-10-26T00:02:29.399Z,22.74
2017-10-26T00:03:09.857Z,22.73
2017-10-26T00:03:50.298Z,22.74
2017-10-26T00:04:30.739Z,22.76
2017-10-26T00:05:11.174Z,22.73
2017-10-26T00:05:51.648Z,22.71
2017-10-26T00:06:32.056Z,22.74
2017-10-26T00:07:12.530Z,22.74
2017-10-26T00:07:52.983Z,22.68
2017-10-26T00:08:33.423Z,22.7
2017-10-26T00:09:13.885Z,22.67
2017-10-26T00:09:54.377Z,22.67
2017-10-26T00:10:34.819Z,22.71
2017-10-26T00:11:15.280Z,22.62
2017-10-26T00:11:55.703Z,22.65
2017-10-26T00:12:36.132Z,22.61
2017-10-26T00:13:16.573Z,22.63
2017-10-26T00:13:57.024Z,22.7
2017-10-26T00:14:37.465Z,22.62
2017-10-26T00:15:17.922Z,22.74
2017-10-26T00:15:58.361Z,22.59
2017-10-26T00:16:38.811Z,22.71
2017-10-26T00:17:19.254Z,22.7
2017-10-26T00:17:59.805Z,22.74
2017-10-26T00:18:40.256Z,22.73
2017-10-26T00:19:20.705Z,22.61
2017-10-26T00:20:01.148Z,22.65
2017-10-26T00:20:41.593Z,22.67
2017-10-26T00:21:22.031Z,22.68
2017-10-26T00:22:02.501Z,22.62
2017-10-26T00:22:42.946Z,22.62
2017-10-26T00:23:23.389Z,22.61
2017-10-26T00:24:03.849Z,22.67
2017-10-26T00:24:44.287Z,22.56
2017-10-26T00:25:24.748Z,22.67
2017-10-26T00:26:05.198Z,22.67
2017-10-26T00:26:45.645Z,22.67
2017-10-26T00:27:26.099Z,22.62
2017-10-26T00:28:06.572Z,22.63
2017-10-26T00:28:47.046Z,22.63
2017-10-26T00:29:27.504Z,22.59
2017-10-26T00:30:07.959Z,22.61
2017-10-26T00:30:48.440Z,22.65
2017-10-26T00:31:28.892Z,22.65
2017-10-26T00:32:09.355Z,22.61
2017-10-26T00:32:49.829Z,22.67
2017-10-26T00:33:30.288Z,22.56
2017-10-26T00:34:10.763Z,22.7
2017-10-26T00:34:51.227Z,22.61
2017-10-26T00:35:31.662Z,22.68
2017-10-26T00:36:12.108Z,22.56
2017-10-26T00:36:52.561Z,22.62
2017-10-26T00:37:33.016Z,22.59
2017-10-26T00:38:13.474Z,22.68
2017-10-26T00:38:53.943Z,22.58
2017-10-26T00:39:34.398Z,22.65
2017-10-26T00:40:14.860Z,22.62
2017-10-26T00:40:55.325Z,22.55
2017-10-26T00:41:35.782Z,22.68
2017-10-26T00:42:16.236Z,22.58
2017-10-26T00:42:56.694Z,22.58
2017-10-26T00:43:37.146Z,22.62
2017-10-26T00:44:17.598Z,22.62
2017-10-26T00:44:58.054Z,22.61
2017-10-26T00:45:38.513Z,22.65
2017-10-26T00:46:18.964Z,22.68
2017-10-26T00:46:59.429Z,22.68
2017-10-26T00:47:39.886Z,22.62
2017-10-26T00:48:20.347Z,22.67
2017-10-26T00:49:00.809Z,22.67
2017-10-26T00:49:41.265Z,22.63
2017-10-26T00:50:21.728Z,22.58
2017-10-26T00:51:02.167Z,22.61
2017-10-26T00:51:42.619Z,22.58
2017-10-26T00:52:23.065Z,22.61
2017-10-26T00:53:03.513Z,22.61
2017-10-26T00:53:43.978Z,22.58
2017-10-26T00:54:24.433Z,22.63
2017-10-26T00:55:04.908Z,22.58
2017-10-26T00:55:45.362Z,22.51
2017-10-26T00:56:25.824Z,22.63
2017-10-26T00:57:06.274Z,22.56
2017-10-26T00:57:46.736Z,22.61
2017-10-26T00:58:27.193Z,22.51
2017-10-26T00:59:07.660Z,22.62
2017-10-26T00:59:48.115Z,22.61
2017-10-26T01:00:28.568Z,22.67
2017-10-26T01:01:09.037Z,22.58
2017-10-26T01:01:49.496Z,22.53
2017-10-26T01:02:29.951Z,22.49
2017-10-26T01:03:10.403Z,22.61
2017-10-26T01:03:50.853Z,22.47
2017-10-26T01:04:31.299Z,22.44
2017-10-26T01:05:11.753Z,22.55
2017-10-26T01:05:52.216Z,22.43
2017-10-26T01:06:32.667Z,22.51
2017-10-26T01:07:13.120Z,22.51
2017-10-26T01:07:53.584Z,22.44
2017-10-26T01:08:34.140Z,22.61
2017-10-26T01:09:14.586Z,22.52
2017-10-26T01:09:55.056Z,22.52
2017-10-26T01:10:35.505Z,22.59
2017-10-26T01:11:15.965Z,22.53
2017-10-26T01:11:56.421Z,22.47
2017-10-26T01:12:36.876Z,22.51
2017-10-26T01:13:17.340Z,22.55
2017-10-26T01:13:57.789Z,22.51
2017-10-26T01:14:38.245Z,22.43
2017-10-26T01:15:18.703Z,22.46
2017-10-26T01:15:59.166Z,22.46
2017-10-26T01:16:39.633Z,22.46
2017-10-26T01:17:20.082Z,22.44
2017-10-26T01:18:00.552Z,22.53
2017-10-26T01:18:41.002Z,22.58
2017-10-26T01:19:21.463Z,22.53
2017-10-26T01:20:01.924Z,22.44
2017-10-26T01:20:42.378Z,22.46
2017-10-26T01:21:22.838Z,22.59
2017-10-26T01:22:03.297Z,22.51
2017-10-26T01:22:43.751Z,22.51
2017-10-26T01:23:24.207Z,22.52
2017-10-26T01:24:04.653Z,22.55
2017-10-26T01:24:45.114Z,22.59
2017-10-26T01:25:25.564Z,22.51
2017-10-26T01:26:06.014Z,22.53
2017-10-26T01:26:46.470Z,22.51
2017-10-26T01:27:26.916Z,22.56
2017-10-26T01:28:07.371Z,22.46
2017-10-26T01:28:47.832Z,22.55
2017-10-26T01:29:28.272Z,22.51
2017-10-26T01:30:08.792Z,22.55
2017-10-26T01:30:49.223Z,22.59
2017-10-26T01:31:29.674Z,22.52
2017-10-26T01:32:10.134Z,22.46
2017-10-26T01:32:50.587Z,22.49
2017-10-26T01:33:31.042Z,22.43
2017-10-26T01:34:11.497Z,22.55
2017-10-26T01:34:51.961Z,22.4
2017-10-26T01:35:32.407Z,22.46
2017-10-26T01:36:12.859Z,22.47
2017-10-26T01:36:53.305Z,22.49
2017-10-26T01:37:33.746Z,22.49
2017-10-26T01:38:14.199Z,22.51
2017-10-26T01:38:54.655Z,22.51
2017-10-26T01:39:35.121Z,22.47
2017-10-26T01:40:15.584Z,22.51
2017-10-26T01:40:56.042Z,22.53
2017-10-26T01:41:36.498Z,22.55
2017-10-26T01:42:16.950Z,22.47
2017-10-26T01:42:57.404Z,22.58
2017-10-26T01:43:37.870Z,22.55
2017-10-26T01:44:18.313Z,22.53
2017-10-26T01:44:58.759Z,22.56
2017-10-26T01:45:39.210Z,22.47
2017-10-26T01:46:19.662Z,22.47
2017-10-26T01:47:00.122Z,22.53
2017-10-26T01:47:40.577Z,22.49
2017-10-26T01:48:21.084Z,22.53
2017-10-26T01:49:01.514Z,22.56
2017-10-26T01:49:41.968Z,22.49
2017-10-26T01:50:22.444Z,22.51
2017-10-26T01:51:02.982Z,22.52
2017-10-26T01:51:43.426Z,22.52
2017-10-26T01:52:23.880Z,22.51
2017-10-26T01:53:04.340Z,22.41
2017-10-26T01:53:44.796Z,22.43
2017-10-26T01:54:25.253Z,22.38
2017-10-26T01:55:05.694Z,22.53
2017-10-26T01:55:46.142Z,22.4
2017-10-26T01:56:26.596Z,22.4
2017-10-26T01:57:07.035Z,22.41
2017-10-26T01:57:47.491Z,22.51
2017-10-26T01:58:27.950Z,22.47
2017-10-26T01:59:08.406Z,22.41
2017-10-26T01:59:48.872Z,22.51
2017-10-26T02:00:29.335Z,22.38
2017-10-26T02:01:09.795Z,22.46
2017-10-26T02:01:50.246Z,22.37
2017-10-26T02:02:45.449Z,22.43
2017-10-26T02:03:25.926Z,22.46
2017-10-26T02:04:06.382Z,22.46
2017-10-26T02:04:46.838Z,22.4
2017-10-26T02:05:27.287Z,22.52
2017-10-26T02:06:07.737Z,22.47
2017-10-26T02:06:48.196Z,22.52
2017-10-26T02:07:28.653Z,22.56
2017-10-26T02:08:09.114Z,22.49
2017-10-26T02:08:49.564Z,22.56
2017-10-26T02:09:30.014Z,22.44
2017-10-26T02:10:10.473Z,22.41
2017-10-26T02:10:50.925Z,22.56
2017-10-26T02:11:31.383Z,22.51
2017-10-26T02:12:11.836Z,22.38
2017-10-26T02:12:52.297Z,22.47
2017-10-26T02:13:32.755Z,22.44
2017-10-26T02:14:13.226Z,22.46
2017-10-26T02:14:53.688Z,22.4
2017-10-26T02:15:34.132Z,22.44
2017-10-26T02:16:14.570Z,22.4
2017-10-26T02:16:55.030Z,22.4
2017-10-26T02:17:35.482Z,22.47
2017-10-26T02:18:15.957Z,22.47
2017-10-26T02:18:56.410Z,22.44
2017-10-26T02:19:36.880Z,22.41
2017-10-26T02:20:17.326Z,22.44
2017-10-26T02:20:57.777Z,22.36
2017-10-26T02:21:38.228Z,22.46
2017-10-26T02:22:18.672Z,22.38
2017-10-26T02:22:59.135Z,22.46
2017-10-26T02:23:39.597Z,22.49
2017-10-26T02:24:20.053Z,22.43
2017-10-26T02:25:00.516Z,22.44
2017-10-26T02:25:40.963Z,22.4
2017-10-26T02:26:21.420Z,22.41
2017-10-26T02:27:01.864Z,22.43
2017-10-26T02:27:42.319Z,22.4
2017-10-26T02:28:22.780Z,22.46
2017-10-26T02:29:03.228Z,22.47
2017-10-26T02:29:43.688Z,22.38
2017-10-26T02:30:24.153Z,22.43
2017-10-26T02:31:04.607Z,22.52
2017-10-26T02:31:45.061Z,22.47
2017-10-26T02:32:25.519Z,22.52
2017-10-26T02:33:05.976Z,22.49
2017-10-26T02:33:46.428Z,22.4
2017-10-26T02:34:26.881Z,22.53
2017-10-26T02:35:07.330Z,22.38
2017-10-26T02:35:47.790Z,22.49
2017-10-26T02:36:28.245Z,22.52
2017-10-26T02:37:08.701Z,22.41
2017-10-26T02:37:49.159Z,22.47
2017-10-26T02:38:29.612Z,22.38
2017-10-26T02:39:10.067Z,22.41
2017-10-26T02:39:50.517Z,22.43
2017-10-26T02:40:30.963Z,22.43
2017-10-26T02:41:11.420Z,22.47
2017-10-26T02:41:51.874Z,22.41
2017-10-26T02:42:32.326Z,22.41
2017-10-26T02:43:12.782Z,22.4
2017-10-26T02:43:53.239Z,22.51
2017-10-26T02:44:33.692Z,22.38
2017-10-26T02:45:14.150Z,22.46
2017-10-26T02:45:54.595Z,22.43
2017-10-26T02:46:35.043Z,22.41
2017-10-26T02:47:15.505Z,22.41
2017-10-26T02:47:55.963Z,22.38
2017-10-26T02:48:36.426Z,22.41
2017-10-26T02:49:16.884Z,22.38
2017-10-26T02:49:57.336Z,22.41
2017-10-26T02:50:37.807Z,22.38
2017-10-26T02:51:18.252Z,22.4
2017-10-26T02:51:58.711Z,22.41
2017-10-26T02:52:39.170Z,22.44
2017-10-26T02:53:19.620Z,22.4
2017-10-26T02:54:00.087Z,22.37
2017-10-26T02:54:40.531Z,22.43
2017-10-26T02:55:20.984Z,22.43
2017-10-26T02:56:01.442Z,22.44
2017-10-26T02:56:41.906Z,22.41
2017-10-26T02:57:22.380Z,22.44
2017-10-26T02:58:02.841Z,22.41
2017-10-26T02:58:43.296Z,22.41
2017-10-26T02:59:23.752Z,22.41
2017-10-26T03:00:04.223Z,22.43
2017-10-26T03:00:44.681Z,22.47
2017-10-26T03:01:25.134Z,22.41
2017-10-26T03:02:05.592Z,22.37
2017-10-26T03:02:46.040Z,22.4
2017-10-26T03:03:26.495Z,22.44
2017-10-26T03:04:06.955Z,22.38
2017-10-26T03:04:47.427Z,22.44
2017-10-26T03:05:27.886Z,22.37
2017-10-26T03:06:08.353Z,22.43
2017-10-26T03:06:48.809Z,22.43
2017-10-26T03:07:29.265Z,22.43
2017-10-26T03:08:09.716Z,22.44
2017-10-26T03:08:50.179Z,22.41
2017-10-26T03:09:30.632Z,22.44
2017-10-26T03:10:11.090Z,22.4
2017-10-26T03:10:51.542Z,22.41
2017-10-26T03:11:32.005Z,22.4
2017-10-26T03:12:12.459Z,22.4
2017-10-26T03:12:52.915Z,22.46
2017-10-26T03:13:33.372Z,22.38
2017-10-26T03:14:13.828Z,22.43
2017-10-26T03:14:54.286Z,22.41
2017-10-26T03:15:34.747Z,22.4
2017-10-26T03:16:15.211Z,22.38
2017-10-26T03:16:55.653Z,22.46
2017-10-26T03:17:36.106Z,22.41
2017-10-26T03:18:16.553Z,22.46
2017-10-26T03:18:57.012Z,22.46
2017-10-26T03:19:37.464Z,22.43
2017-10-26T03:20:17.922Z,22.41
2017-10-26T03:20:58.375Z,22.44
2017-10-26T03:21:38.832Z,22.46
2017-10-26T03:22:19.301Z,22.44
2017-10-26T03:22:59.761Z,22.44
2017-10-26T03:23:40.210Z,22.43
2017-10-26T03:24:20.662Z,22.43
2017-10-26T03:25:01.120Z,22.49
2017-10-26T03:25:41.550Z,22.41
2017-10-26T03:26:22.013Z,22.41
2017-10-26T03:27:02.459Z,22.44
2017-10-26T03:27:42.908Z,22.49
2017-10-26T03:28:23.371Z,22.44
2017-10-26T03:29:03.829Z,22.43
2017-10-26T03:29:44.277Z,22.38
2017-10-26T03:30:24.737Z,22.44
2017-10-26T03:31:05.190Z,22.43
2017-10-26T03:31:45.638Z,22.4
2017-10-26T03:32:26.098Z,22.38
2017-10-26T03:33:06.554Z,22.36
2017-10-26T03:33:47.004Z,22.43
2017-10-26T03:34:27.467Z,22.38
2017-10-26T03:35:07.924Z,22.38
2017-10-26T03:35:48.424Z,22.37
2017-10-26T03:36:28.849Z,22.36
2017-10-26T03:37:09.310Z,22.4
2017-10-26T03:37:49.770Z,22.33
2017-10-26T03:38:30.217Z,22.43
2017-10-26T03:39:10.666Z,22.4
2017-10-26T03:39:51.126Z,22.43
2017-10-26T03:40:31.578Z,22.43
2017-10-26T03:41:12.037Z,22.4
2017-10-26T03:41:52.500Z,22.38
2017-10-26T03:42:32.945Z,22.41
2017-10-26T03:43:13.391Z,22.46
2017-10-26T03:43:53.841Z,22.44
2017-10-26T03:44:34.300Z,22.46
2017-10-26T03:45:14.748Z,22.38
2017-10-26T03:45:55.516Z,22.43
2017-10-26T03:46:35.913Z,22.51
2017-10-26T03:47:16.371Z,22.44
2017-10-26T03:47:56.807Z,22.4
2017-10-26T03:48:37.262Z,22.44
2017-10-26T03:49:17.720Z,22.37
2017-10-26T03:49:58.172Z,22.46
2017-10-26T03:50:38.611Z,22.49
2017-10-26T03:51:19.096Z,22.43
2017-10-26T03:51:59.557Z,22.44
2017-10-26T03:52:40.005Z,22.52
2017-10-26T03:53:20.463Z,22.55
2017-10-26T03:54:00.903Z,22.56
2017-10-26T03:54:41.348Z,22.58
2017-10-26T03:55:21.792Z,22.49
2017-10-26T03:56:02.236Z,22.56
2017-10-26T03:56:42.676Z,22.46
2017-10-26T03:57:23.129Z,22.52
2017-10-26T03:58:03.579Z,22.4
2017-10-26T03:58:44.021Z,22.36
2017-10-26T03:59:24.477Z,22.4
2017-10-26T04:00:04.935Z,22.4
2017-10-26T04:00:45.399Z,22.44
2017-10-26T04:01:25.877Z,22.38
2017-10-26T04:02:06.477Z,22.38
2017-10-26T04:02:46.910Z,22.38
2017-10-26T04:03:27.365Z,22.36
2017-10-26T04:04:07.841Z,22.38
2017-10-26T04:04:48.301Z,22.43
2017-10-26T04:05:28.747Z,22.43
2017-10-26T04:06:09.197Z,22.43
2017-10-26T04:06:49.643Z,22.46
2017-10-26T04:07:30.087Z,22.4
2017-10-26T04:08:10.533Z,22.34
2017-10-26T04:08:50.982Z,22.43
2017-10-26T04:09:31.448Z,22.55
2017-10-26T04:10:11.901Z,22.51
2017-10-26T04:10:52.341Z,22.51
2017-10-26T04:11:32.782Z,22.55
2017-10-26T04:12:13.220Z,22.47
2017-10-26T04:12:53.654Z,22.55
2017-10-26T04:13:34.098Z,22.52
2017-10-26T04:14:14.551Z,22.44
2017-10-26T04:14:55.009Z,22.47
2017-10-26T04:15:35.463Z,22.49
2017-10-26T04:16:15.915Z,22.62
2017-10-26T04:16:56.376Z,22.58
2017-10-26T04:17:36.840Z,22.67
2017-10-26T04:18:17.284Z,22.55
2017-10-26T04:18:57.742Z,22.61
2017-10-26T04:19:38.190Z,22.61
2017-10-26T04:20:18.645Z,22.62
2017-10-26T04:20:59.081Z,22.76
2017-10-26T04:21:39.537Z,22.63
2017-10-26T04:22:19.982Z,22.71
2017-10-26T04:23:00.443Z,22.67
2017-10-26T04:23:40.894Z,22.76
2017-10-26T04:24:21.356Z,22.63
2017-10-26T04:25:01.826Z,22.76
2017-10-26T04:25:42.280Z,22.8
2017-10-26T04:26:22.742Z,22.7
2017-10-26T04:27:03.211Z,22.76
2017-10-26T04:27:43.638Z,22.73
2017-10-26T04:28:24.095Z,22.78
2017-10-26T04:29:04.557Z,22.81
2017-10-26T04:29:45.120Z,22.81
2017-10-26T04:30:25.475Z,22.88
2017-10-26T04:31:05.929Z,22.91
2017-10-26T04:31:46.385Z,22.8
2017-10-26T04:32:26.838Z,22.84
2017-10-26T04:33:07.280Z,22.91
2017-10-26T04:33:48.154Z,22.92
2017-10-26T04:34:28.634Z,22.88
2017-10-26T04:35:09.068Z,22.93
2017-10-26T04:35:49.532Z,22.93
2017-10-26T04:36:29.969Z,22.89
2017-10-26T04:37:10.429Z,22.98
2017-10-26T04:37:50.871Z,22.96
2017-10-26T04:38:31.323Z,22.92
2017-10-26T04:39:11.768Z,22.99
2017-10-26T04:39:52.230Z,23.02
2017-10-26T04:40:32.666Z,22.93
2017-10-26T04:41:13.107Z,22.96
2017-10-26T04:41:53.570Z,23.04
2017-10-26T04:42:34.082Z,22.95
2017-10-26T04:43:14.534Z,22.96
2017-10-26T04:43:55.005Z,22.98
2017-10-26T04:44:35.451Z,23.02
2017-10-26T04:45:15.901Z,22.98
2017-10-26T04:45:56.347Z,22.93
2017-10-26T04:46:36.808Z,22.98
2017-10-26T04:47:17.252Z,23.02
2017-10-26T04:47:57.708Z,23.04
2017-10-26T04:48:38.178Z,23.02
2017-10-26T04:49:18.628Z,23.01
2017-10-26T04:49:59.077Z,23.04
2017-10-26T04:50:39.521Z,23.02
2017-10-26T04:51:19.990Z,22.95
2017-10-26T04:52:00.440Z,22.98
2017-10-26T04:52:40.890Z,22.99
2017-10-26T04:53:21.342Z,23.01
2017-10-26T04:54:01.798Z,23.01
2017-10-26T04:54:42.249Z,22.96
2017-10-26T04:55:22.699Z,23.04
2017-10-26T04:56:03.149Z,23.02
2017-10-26T04:56:43.600Z,22.98
2017-10-26T04:57:24.052Z,23.02
2017-10-26T04:58:04.498Z,23.01
2017-10-26T04:58:44.948Z,23.06
2017-10-26T04:59:25.399Z,22.99
2017-10-26T05:00:05.869Z,23.02
2017-10-26T05:00:46.357Z,23.04
2017-10-26T05:01:26.860Z,23.02
2017-10-26T05:02:07.308Z,22.99
2017-10-26T05:02:47.758Z,22.99
2017-10-26T05:03:28.213Z,22.96
2017-10-26T05:04:08.672Z,23.04
2017-10-26T05:04:49.134Z,23.02
2017-10-26T05:05:29.585Z,23.08
2017-10-26T05:06:10.048Z,22.99
2017-10-26T05:06:50.507Z,22.99
2017-10-26T05:07:30.959Z,23.04
2017-10-26T05:08:11.406Z,23.06
2017-10-26T05:08:51.864Z,23.06
2017-10-26T05:09:32.310Z,22.98
2017-10-26T05:10:12.767Z,23.02
2017-10-26T05:10:53.217Z,23.06
2017-10-26T05:11:33.692Z,23.02
2017-10-26T05:12:14.143Z,23.01
2017-10-26T05:12:54.597Z,23.02
2017-10-26T05:13:35.051Z,22.98
2017-10-26T05:14:15.505Z,23.07
2017-10-26T05:14:55.955Z,22.99
2017-10-26T05:15:36.406Z,23.06
2017-10-26T05:16:16.862Z,22.99
2017-10-26T05:16:57.316Z,23.02
2017-10-26T05:17:37.769Z,22.98
2017-10-26T05:18:18.232Z,23.06
2017-10-26T05:18:58.656Z,23.01
2017-10-26T05:19:39.128Z,23.04
2017-10-26T05:20:19.614Z,23.02
2017-10-26T05:21:00.059Z,22.96
2017-10-26T05:21:40.517Z,22.98
2017-10-26T05:22:20.984Z,23.01
2017-10-26T05:23:01.408Z,22.96
2017-10-26T05:23:41.852Z,23.01
2017-10-26T05:24:22.306Z,22.98
2017-10-26T05:26:15.908Z,22.98
2017-10-26T05:26:56.366Z,23.01
2017-10-26T05:27:36.968Z,23.04
2017-10-26T05:28:17.420Z,22.98
2017-10-26T05:28:57.933Z,22.99
2017-10-26T05:29:38.392Z,23.04
2017-10-26T05:30:18.828Z,22.98
2017-10-26T05:30:59.310Z,23.04
2017-10-26T05:31:39.770Z,23.02
2017-10-26T05:32:20.240Z,22.99
2017-10-26T05:33:00.686Z,22.96
2017-10-26T05:33:41.146Z,23.02
2017-10-26T05:34:21.609Z,22.95
2017-10-26T05:35:02.057Z,23.01
2017-10-26T05:35:45.381Z,22.98
2017-10-26T05:36:25.858Z,22.98
2017-10-26T05:37:06.311Z,23.04
2017-10-26T05:37:46.792Z,22.96
2017-10-26T05:38:27.201Z,23.04
2017-10-26T05:39:07.709Z,22.99
2017-10-26T05:41:05.407Z,23.06
2017-10-26T05:41:45.850Z,22.95
2017-10-26T05:42:26.304Z,23.04
2017-10-26T05:43:06.762Z,23.06
2017-10-26T05:43:47.224Z,23.02
2017-10-26T05:44:27.685Z,22.95
2017-10-26T05:45:08.136Z,22.93
2017-10-26T05:45:48.580Z,22.95
2017-10-26T05:46:29.028Z,22.93
2017-10-26T05:47:09.507Z,22.96
2017-10-26T05:47:49.957Z,23.02
2017-10-26T05:48:30.411Z,23.01
2017-10-26T05:49:10.851Z,23.02
2017-10-26T05:49:51.314Z,22.99
2017-10-26T05:50:31.783Z,22.99
2017-10-26T05:51:12.218Z,22.98
2017-10-26T05:51:52.675Z,22.98
2017-10-26T05:52:33.126Z,23.01
2017-10-26T05:53:13.562Z,23.07
2017-10-26T05:53:54.018Z,22.95
2017-10-26T05:54:34.475Z,22.99
2017-10-26T05:55:14.939Z,22.99
2017-10-26T05:55:55.377Z,23.02
2017-10-26T05:56:35.844Z,23.04
2017-10-26T05:57:16.294Z,22.98
2017-10-26T05:57:56.745Z,23.02
2017-10-26T05:58:37.197Z,23.04
2017-10-26T05:59:17.657Z,22.98
2017-10-26T05:59:58.122Z,22.98
2017-10-26T06:00:38.572Z,23.04
2017-10-26T06:01:19.017Z,23.06
2017-10-26T06:01:59.465Z,23.04
2017-10-26T06:02:39.919Z,23.02
2017-10-26T06:03:20.359Z,23.02
2017-10-26T06:04:00.807Z,23.02
2017-10-26T06:04:41.261Z,23.01
2017-10-26T06:05:21.716Z,23.07
2017-10-26T06:06:02.167Z,23.08
2017-10-26T06:06:42.616Z,22.98
2017-10-26T06:07:23.072Z,23.1
2017-10-26T06:08:03.525Z,23.08
2017-10-26T06:08:43.983Z,23.01
2017-10-26T06:09:24.438Z,22.98
2017-10-26T06:10:05.330Z,22.98
2017-10-26T06:10:45.779Z,23.02
2017-10-26T06:11:26.252Z,23.02
2017-10-26T06:12:06.704Z,22.99
2017-10-26T06:12:47.156Z,23.01
2017-10-26T06:13:27.606Z,23.02
2017-10-26T06:14:08.079Z,22.99
2017-10-26T06:14:48.531Z,23.02
2017-10-26T06:15:28.987Z,23.02
2017-10-26T06:16:09.449Z,23.04
2017-10-26T06:16:49.891Z,22.95
2017-10-26T06:17:30.336Z,23.06
2017-10-26T06:18:10.785Z,23.08
2017-10-26T06:18:51.245Z,22.95
2017-10-26T06:19:31.701Z,23.07
2017-10-26T06:20:12.152Z,23.11
2017-10-26T06:20:52.622Z,23.02
2017-10-26T06:21:33.101Z,23.06
2017-10-26T06:22:13.535Z,23.08
2017-10-26T06:22:53.990Z,23.06
2017-10-26T06:23:34.446Z,23.01
2017-10-26T06:24:14.897Z,23.07
2017-10-26T06:24:55.350Z,23.08
2017-10-26T06:25:35.808Z,23.02
2017-10-26T06:26:16.277Z,23.07
2017-10-26T06:26:56.727Z,23.07
2017-10-26T06:27:37.188Z,23.1
2017-10-26T06:28:17.656Z,23.08
2017-10-26T06:28:58.104Z,23.06
2017-10-26T06:29:38.551Z,23.11
2017-10-26T06:30:19.006Z,23.04
2017-10-26T06:31:56.436Z,23.08
2017-10-26T06:32:36.883Z,23.14
2017-10-26T06:33:17.343Z,23.11
2017-10-26T06:33:57.800Z,23.13
2017-10-26T06:34:38.263Z,23.1
2017-10-26T06:35:18.710Z,23.1
2017-10-26T06:35:59.173Z,23.11
2017-10-26T06:36:39.610Z,23.06
2017-10-26T06:37:20.063Z,23.11
2017-10-26T06:38:00.502Z,23.1
2017-10-26T06:38:40.950Z,23.13
2017-10-26T06:39:21.396Z,23.1
2017-10-26T06:40:01.839Z,23.14
2017-10-26T06:40:42.292Z,23.11
2017-10-26T06:41:22.744Z,23.14
2017-10-26T06:42:03.196Z,23.08
2017-10-26T06:42:43.649Z,23.07
2017-10-26T06:43:24.102Z,23.1
2017-10-26T06:44:04.580Z,23.13
2017-10-26T06:44:45.051Z,23.07
2017-10-26T06:45:25.495Z,23.2
2017-10-26T06:46:05.945Z,23.21
2017-10-26T06:46:46.397Z,23.17
2017-10-26T06:47:26.841Z,23.14
2017-10-26T06:48:07.294Z,23.13
2017-10-26T06:48:47.741Z,23.17
2017-10-26T06:49:28.189Z,23.11
2017-10-26T06:50:08.638Z,23.13
2017-10-26T06:50:49.089Z,23.1
2017-10-26T06:51:29.550Z,23.1
2017-10-26T06:52:10.005Z,23.13
2017-10-26T06:52:50.455Z,23.2
2017-10-26T06:53:30.905Z,23.2
2017-10-26T06:54:11.360Z,23.2
2017-10-26T06:54:51.812Z,23.16
2017-10-26T06:55:32.256Z,23.18
2017-10-26T06:56:12.706Z,23.28
2017-10-26T06:56:53.156Z,23.29
2017-10-26T06:57:33.600Z,23.28
2017-10-26T06:58:14.059Z,23.28
2017-10-26T06:58:54.513Z,23.29
2017-10-26T06:59:34.965Z,23.26
2017-10-26T07:00:15.422Z,23.42
2017-10-26T07:00:55.881Z,23.42
2017-10-26T07:01:36.337Z,23.26
2017-10-26T07:02:16.787Z,23.29
2017-10-26T07:02:57.241Z,23.34
2017-10-26T07:03:37.692Z,23.36
2017-10-26T07:04:18.143Z,23.39
2017-10-26T07:04:58.593Z,23.45
2017-10-26T07:05:39.037Z,23.45
2017-10-26T07:06:19.508Z,23.45
2017-10-26T07:06:59.964Z,23.48
2017-10-26T07:07:40.422Z,23.51
2017-10-26T07:08:20.926Z,23.54
2017-10-26T07:09:01.320Z,23.52
2017-10-26T07:09:41.774Z,23.58
2017-10-26T07:10:22.227Z,23.69
2017-10-26T07:11:02.673Z,23.64
2017-10-26T07:11:43.134Z,23.66
2017-10-26T07:12:23.592Z,23.62
2017-10-26T07:13:04.039Z,23.7
2017-10-26T07:13:44.508Z,23.7
2017-10-26T07:14:24.989Z,23.74
2017-10-26T07:15:05.436Z,23.71
2017-10-26T07:15:45.904Z,23.73
2017-10-26T07:16:26.350Z,23.71
2017-10-26T07:17:06.823Z,23.77
2017-10-26T07:17:47.294Z,23.69
2017-10-26T07:18:27.752Z,23.76
2017-10-26T07:19:08.203Z,23.67
2017-10-26T07:19:48.658Z,23.67
2017-10-26T07:20:29.114Z,23.76
2017-10-26T07:21:09.586Z,23.76
2017-10-26T07:21:50.025Z,23.85
2017-10-26T07:22:30.481Z,23.86
2017-10-26T07:23:10.925Z,23.85
2017-10-26T07:23:51.386Z,23.88
2017-10-26T07:24:31.829Z,23.94
2017-10-26T07:25:12.313Z,24
2017-10-26T07:25:52.767Z,24.09
2017-10-26T07:26:33.241Z,24.11
2017-10-26T07:27:13.695Z,24.09
2017-10-26T07:27:54.146Z,24.1
2017-10-26T07:28:34.601Z,24.16
2017-10-26T07:29:15.060Z,24.16
2017-10-26T07:29:55.516Z,24.16
2017-10-26T07:30:35.963Z,24.11
2017-10-26T07:31:16.420Z,24.24
2017-10-26T07:31:56.871Z,24.25
2017-10-26T07:32:37.349Z,24.32
2017-10-26T07:33:17.798Z,24.34
2017-10-26T07:33:58.257Z,24.32
2017-10-26T07:34:38.705Z,24.34
2017-10-26T07:35:19.159Z,24.36
2017-10-26T07:35:59.615Z,24.36
2017-10-26T07:36:40.070Z,24.37
2017-10-26T07:37:20.532Z,24.34
2017-10-26T07:38:00.978Z,24.32
2017-10-26T07:38:41.455Z,24.34
2017-10-26T07:39:21.940Z,24.36
2017-10-26T07:40:02.395Z,24.21
2017-10-26T07:40:42.852Z,24.29
2017-10-26T07:41:23.309Z,24.22
2017-10-26T07:42:03.767Z,24.25
2017-10-26T07:42:44.245Z,24.24
2017-10-26T07:43:24.683Z,24.18
2017-10-26T07:44:05.131Z,24.19
2017-10-26T07:44:45.580Z,24.19
2017-10-26T07:45:26.055Z,24.14
2017-10-26T07:46:06.506Z,24.19
2017-10-26T07:46:46.957Z,24.14
2017-10-26T07:47:27.421Z,24.14
2017-10-26T07:48:07.869Z,24.16
2017-10-26T07:48:48.325Z,24.09
2017-10-26T07:49:28.784Z,24.03
2017-10-26T07:50:09.238Z,24.01
2017-10-26T07:50:49.684Z,24.11
2017-10-26T07:51:30.141Z,24.04
2017-10-26T07:52:10.594Z,24.03
2017-10-26T07:52:51.052Z,24.01
2017-10-26T07:53:31.505Z,24.06
2017-10-26T07:54:11.958Z,24
2017-10-26T07:54:52.412Z,23.94
2017-10-26T07:55:32.864Z,23.99
2017-10-26T07:56:13.306Z,23.96
2017-10-26T07:56:53.756Z,23.95
2017-10-26T07:57:34.212Z,23.96
2017-10-26T07:58:14.662Z,23.95
2017-10-26T07:58:55.108Z,24.01
2017-10-26T07:59:35.567Z,23.94
2017-10-26T08:00:16.016Z,23.92
2017-10-26T08:00:56.470Z,23.95
2017-10-26T08:01:36.926Z,23.96
2017-10-26T08:02:17.376Z,23.95
2017-10-26T08:02:57.841Z,24.07
2017-10-26T08:03:38.291Z,24.04
2017-10-26T08:04:18.743Z,24.06
2017-10-26T08:04:59.207Z,24.03
2017-10-26T08:05:39.657Z,24.09
2017-10-26T08:06:20.100Z,24.04
2017-10-26T08:07:00.548Z,24.1
2017-10-26T08:07:41.011Z,24.1
2017-10-26T08:08:21.469Z,24.04
2017-10-26T08:09:01.942Z,24.11
2017-10-26T08:09:42.384Z,24.09
2017-10-26T08:10:22.843Z,24.13
2017-10-26T08:11:03.298Z,24.19
2017-10-26T08:11:43.756Z,24.14
2017-10-26T08:12:24.209Z,24.09
2017-10-26T08:13:04.667Z,24.18
2017-10-26T08:13:45.118Z,24.22
2017-10-26T08:14:25.580Z,24.29
2017-10-26T08:15:06.035Z,24.4
2017-10-26T08:15:46.491Z,24.43
2017-10-26T08:16:26.951Z,24.47
2017-10-26T08:17:07.394Z,24.5
2017-10-26T08:17:47.842Z,24.55
2017-10-26T08:18:28.291Z,24.66
2017-10-26T08:19:08.743Z,24.78
2017-10-26T08:19:49.185Z,24.81
2017-10-26T08:20:29.628Z,24.94
2017-10-26T08:21:10.078Z,25
2017-10-26T08:21:50.530Z,25.01
2017-10-26T08:22:30.985Z,25.04
2017-10-26T08:23:11.434Z,25.11
2017-10-26T08:23:51.890Z,25.25
2017-10-26T08:24:32.346Z,25.21
2017-10-26T08:25:12.801Z,25.21
2017-10-26T08:25:53.252Z,25.24
2017-10-26T08:26:33.714Z,25.25
2017-10-26T08:27:14.163Z,25.29
2017-10-26T08:27:54.642Z,25.34
2017-10-26T08:28:35.098Z,25.31
2017-10-26T08:29:15.559Z,25.24
2017-10-26T08:29:56.013Z,25.26
2017-10-26T08:30:36.456Z,25.26
2017-10-26T08:31:16.897Z,25.29
2017-10-26T08:31:57.348Z,25.25
2017-10-26T08:32:37.801Z,25.31
2017-10-26T08:33:18.251Z,25.33
2017-10-26T08:33:58.807Z,25.21
2017-10-26T08:34:39.259Z,25.15
2017-10-26T08:35:19.714Z,25.19
2017-10-26T08:36:00.168Z,25.19
2017-10-26T08:36:40.610Z,25.18
2017-10-26T08:37:21.064Z,25.21
2017-10-26T08:38:01.513Z,25.12
2017-10-26T08:38:41.961Z,25.16
2017-10-26T08:39:22.421Z,25.21
2017-10-26T08:40:02.873Z,25.15
2017-10-26T08:40:43.319Z,25.21
2017-10-26T08:41:23.781Z,25.29
2017-10-26T08:42:04.242Z,25.22
2017-10-26T08:42:44.717Z,25.21
2017-10-26T08:43:25.163Z,25.24
2017-10-26T08:44:05.610Z,25.29
2017-10-26T08:44:46.075Z,25.29
2017-10-26T08:45:26.520Z,25.26
2017-10-26T08:46:06.973Z,25.39